Fort McMurray Airport
CYMM : now visible

Airfield :











YOU CAN JOIN US ON...

 
LOGIN :

Register | Disclaimer

   EN    FR    IT 

 









Legend :    VFR   Marginal VFR   IFR   Intensive IFR   Very Intensive IFR
Visi :
Ceiling :
>= 8 km
>= 3000ft
5 to 8 km
1000 to 3000 ft
1500m to 5 km
500 to 1000 ft
800 to 1500m
200 to 500 ft
< 800m
< 200 ft
Symbols :   Thunderstorms  Fog  Heavy snow  Heavy precipitations  Wind > 20 kt






- Airport Elevation : 1211 ft
- IATA code : YMM


CYMM - Fort McMurray

CURRENT METAR :
  • 220248Z AUTO 34019G28KT 2SM -SN FEW010 BKN016 OVC020 M02/M04 A2990 RMK SLP148

EXPIRED METARs :
  • 220228Z AUTO 34017G24KT 1SM R26/P6000FT/D -SN SCT008 OVC014 M02/M03 A2989 RMK SLP145
  • 220200Z AUTO 34016G23KT 1 1/4SM -SN SCT013 OVC021 M01/M03 A2987 RMK SLP133
  • 220155Z AUTO 34016G27KT 1 3/4SM -SN SCT015 OVC021 M01/M03 A2986 RMK PRESRR SLP136
  • 220152Z AUTO 34016G28KT 2 1/2SM -SN FEW015 OVC021 M01/M03 A2986 RMK SLP135
  • 220141Z AUTO 35022G27KT 8SM -RASN OVC023 00/M04 A2985 RMK SLP130
  • 220134Z AUTO 34021G27KT 9SM OVC023 01/M04 A2984 RMK SLP127
  • 220100Z AUTO 34016G30KT 9SM SCT027 OVC091 02/M04 A2982 RMK PRESRR SLP116
  • 220000Z AUTO 36021G31KT 9SM BKN100 06/M03 A2974 RMK PRESRR SLP090

TAF AMD TAF CYMM
Valid from the 22 at 02:00 until the 22 at 13:00 UTC


220210Z 2202/2213 35015G25KT 6SM -SN OVC025
TEMPO 2202/2207 1SM -SHSN VV012
FM220700 35012G22KT P6SM SCT020 BKN040
TEMPO 2207/2212 5SM -SN BKN020 OVC040
BECMG 2207/2209 34012KT
FM221200 35012KT P6SM BKN040 RMK FCST BASED ON AUTO OBS. NXT FCST BY 220700Z
CZEG FIR / North America



MET'MAP, your aeronautical weather chart ! - Copyright ORBIFLY December 2007 - Disclaimer

ORBIFLY MET'MAP TEAM :

Programming & Development : Alexandra Zaïnal
Concept & original design : Baudouin d'Aumeries
Assistance for programming : Marc-Olivier Méhu
Technical & hardware support : Manuel Goepfert

Contact : metmap@orbifly.com




SOURCES & CREDITS :

   NOAA       Earth
Advisory